• Join FlightAware (Why Join?)
  • Login
  • US Flag 
08:13PM EST


 

Airport Tracker/Info


-or-


 

Live Flight TrackerFlight Track Log ✈ DAL3860 ✈ 03-May-2013 ✈ KGRR - KDTW

Flight Track Log - Related Links

Times and Time Zones

All times are in EDT time to prevent confusion due to time zone crossing. See the DAL3860 flight status page for this flight to view local times or setup timezone preferences in your user account.

Time Position Orientation Groundspeed Altitude Reporting Facility
EDT Latitude Longitude Course Direction KTS MPH feet Rate Location/Type
11:59AM 42.8875 -85.4667 60° Northeast 178 205 2,500  Level Chicago Center
12:00PM 42.9064 -85.3714 75° East 211 243 4,800 2,400 Climbing Chicago Center
12:01PM 42.8333 -85.3475 90° East  Level FlightAware Approximate
12:01PM 42.9331 -85.2725 70° East 268 308 7,500  Level Chicago Center
12:02PM 42.8594 -85.2658 62° Northeast  Level FlightAware Approximate
12:02PM 42.9622 -85.1719 68° East 282 325 10,100  Level Chicago Center
12:03PM 42.8902 -85.1856 62° Northeast  Level FlightAware Approximate
12:03PM 42.9967 -85.0556 68° East 326 375 11,000  Level Chicago Center
12:04PM 42.9214 -85.1057 60° Northeast  Level FlightAware Approximate
12:04PM 43.0356 -84.9275 67° East 364 419 11,100  Level Chicago Center
12:05PM 43.0281 -84.7942 94° East 355 409 12,000 420 Climbing Chicago Center
12:06PM 43.0056 -84.6622 103° East 358 412 12,000  Level Chicago Center
12:07PM 42.9767 -84.4992 104° East 368 423 12,000  Level Chicago Center
12:08PM 42.9533 -84.3669 104° East 361 415 12,000  Level Chicago Center
12:09PM 42.9414 -84.3214 110° East 361 415 12,000  Level Cleveland Center
12:09PM 42.9294 -84.2414 101° East 358 412 12,000  Level Cleveland Center
12:10PM 42.9186 -84.1897 106° East 361 415 12,000  Level Cleveland Center
12:10PM 42.9114 -84.1494 104° East 355 409 12,000  Level Cleveland Center
12:11PM 42.8956 -84.0581 103° East 361 415 12,000  Level Cleveland Center
12:11PM 42.8903 -84.0236 102° East 355 409 12,000  Level Cleveland Center
12:12PM 42.8722 -83.9292 105° East 361 415 12,000  Level Cleveland Center
12:12PM 42.8614 -83.8747 105° East 353 406 12,000  Level Cleveland Center
12:13PM 42.8467 -83.8003 105° East 361 415 12,000  Level Cleveland Center
12:13PM 42.8356 -83.7517 107° East 301 346 12,000 -120 Level Cleveland Center
12:14PM 42.8031 -83.7158 141° Southeast 306 352 11,900 -840 Descending Cleveland Center
12:14PM 42.7600 -83.6911 157° South 279 321 11,100 -1,320 Descending Cleveland Center
12:15PM 42.7314 -83.6756 158° South 269 310 10,600 -1,260 Descending Cleveland Center
12:15PM 42.7025 -83.6572 155° Southeast 267 307 10,000 -1,200 Descending Cleveland Center
12:16PM 42.6700 -83.6303 149° Southeast 264 304 9,400 -1,140 Descending Cleveland Center
12:16PM 42.6417 -83.6006 142° Southeast 252 290 8,900 -1,140 Descending Cleveland Center
12:17PM 42.6153 -83.5711 141° Southeast 259 298 8,300 -1,200 Descending Cleveland Center
12:17PM 42.5808 -83.5356 143° Southeast 254 292 7,600 -1,140 Descending Cleveland Center
12:18PM 42.5583 -83.5119 142° Southeast 259 298 7,200 -1,020 Descending Cleveland Center
12:18PM 42.5319 -83.4825 141° Southeast 257 296 6,700 -1,140 Descending Cleveland Center
12:19PM 42.5014 -83.4531 145° Southeast 259 298 6,100 -720 Descending Cleveland Center
12:19PM 42.4711 -83.4236 144° Southeast 251 289 6,000 -660 Descending Cleveland Center
12:20PM 42.4100 -83.3589 142° Southeast 248 285 5,100 -840 Descending Cleveland Center